Time;durP1;ratioP1;P1;durP2;ratioP2;P2;SDS_P1;SDS_P2;PMS_P1;PMS_P2;Temp;Humidity;BMP_temperature;BMP_pressure;BME280_temperature;BME280_humidity;BME280_pressure;Samples;Min_cycle;Max_cycle;Signal;HPM_P1;HPM_P2
2022/03/27 00:00:48;;;;;;;;;;;4.60;97.20;;;;;;5035870;28;19947;-73
2022/03/27 00:03:14;;;;;;;;;;;4.60;97.20;;;;;;5035446;28;19962;-73
2022/03/27 00:05:39;;;;;;;;;;;4.60;97.30;;;;;;5051034;28;19905;-73
2022/03/27 00:08:05;;;;;;;;;;;4.60;97.30;;;;;;5035966;28;19909;-73
2022/03/27 00:11:23;;;;;;;;;;;4.50;97.30;;;;;;5035657;28;19909;-73
2022/03/27 00:13:16;;;;;;;;;;;4.50;97.50;;;;;;5035378;28;20411;-73
2022/03/27 00:15:41;;;;;;;;;;;4.50;97.50;;;;;;5035846;28;19905;-73
2022/03/27 00:18:07;;;;;;;;;;;4.40;97.50;;;;;;5035144;28;19999;-73
2022/03/27 00:20:32;;;;;;;;;;;4.30;97.50;;;;;;5035791;28;19905;-73
2022/03/27 00:22:58;;;;;;;;;;;4.30;97.60;;;;;;5050642;28;19912;-73
2022/03/27 00:25:24;;;;;;;;;;;4.20;97.70;;;;;;5035356;28;19917;-73
2022/03/27 00:27:49;;;;;;;;;;;4.20;97.80;;;;;;5035628;28;19913;-73
2022/03/27 00:30:15;;;;;;;;;;;4.20;97.90;;;;;;5035245;28;19912;-73
2022/03/27 00:32:40;;;;;;;;;;;4.20;98.00;;;;;;5034902;28;19911;-73
2022/03/27 00:35:06;;;;;;;;;;;4.10;98.20;;;;;;5050369;28;19905;-73
2022/03/27 00:37:33;;;;;;;;;;;4.10;98.30;;;;;;5035057;28;19947;-73
2022/03/27 00:39:59;;;;;;;;;;;4.00;98.50;;;;;;5050443;28;19905;-73
2022/03/27 00:42:25;;;;;;;;;;;4.00;98.70;;;;;;5034867;28;19909;-73
2022/03/27 00:44:50;;;;;;;;;;;3.90;99.00;;;;;;5035231;28;19905;-73
2022/03/27 00:47:16;;;;;;;;;;;3.90;99.20;;;;;;5034651;28;19940;-73
2022/03/27 00:49:41;;;;;;;;;;;3.90;99.60;;;;;;5034811;28;19948;-73
2022/03/27 00:52:07;;;;;;;;;;;3.80;99.90;;;;;;5034699;28;19905;-73
2022/03/27 00:54:32;;;;;;;;;;;3.70;99.90;;;;;;5034787;28;19909;-72
2022/03/27 00:56:58;;;;;;;;;;;3.60;99.90;;;;;;5034991;28;19905;-73
2022/03/27 00:59:23;;;;;;;;;;;3.50;99.90;;;;;;5049930;28;19920;-72
2022/03/27 01:01:49;;;;;;;;;;;3.50;99.90;;;;;;5034409;28;19912;-72
2022/03/27 01:04:15;;;;;;;;;;;3.50;99.90;;;;;;5034509;28;20047;-73
2022/03/27 01:06:41;;;;;;;;;;;3.50;99.90;;;;;;5034524;28;19911;-73
2022/03/27 01:12:13;;;;;;;;;;;3.30;99.90;;;;;;5034354;28;19912;-72
2022/03/27 01:14:38;;;;;;;;;;;3.20;99.90;;;;;;5034377;28;20033;-72
2022/03/27 01:17:08;;;;;;;;;;;3.30;99.90;;;;;;5034174;28;19940;-72
2022/03/27 01:19:34;;;;;;;;;;;3.30;99.90;;;;;;5034288;28;19913;-72
2022/03/27 01:22:00;;;;;;;;;;;3.30;99.90;;;;;;5034548;28;19932;-72
2022/03/27 01:24:26;;;;;;;;;;;3.30;99.90;;;;;;5034192;28;19912;-72
2022/03/27 01:26:51;;;;;;;;;;;3.30;99.90;;;;;;5034187;28;20000;-72
2022/03/27 01:29:17;;;;;;;;;;;3.30;99.90;;;;;;5034748;28;19951;-72
2022/03/27 01:31:42;;;;;;;;;;;3.30;99.90;;;;;;5049272;28;19909;-72
2022/03/27 01:34:08;;;;;;;;;;;3.30;99.90;;;;;;5034063;28;20281;-72
2022/03/27 01:36:35;;;;;;;;;;;3.30;99.90;;;;;;5034603;28;19920;-72
2022/03/27 01:39:01;;;;;;;;;;;3.20;99.90;;;;;;5034052;28;20316;-72
2022/03/27 01:41:27;;;;;;;;;;;3.20;99.90;;;;;;5034535;28;19905;-72
2022/03/27 01:43:53;;;;;;;;;;;3.20;99.90;;;;;;5034255;28;19905;-72
2022/03/27 01:46:18;;;;;;;;;;;3.10;99.90;;;;;;5033874;28;19912;-72
2022/03/27 01:48:44;;;;;;;;;;;3.10;99.90;;;;;;5033639;28;19909;-72
2022/03/27 01:51:10;;;;;;;;;;;3.10;99.90;;;;;;5049233;28;19927;-72
2022/03/27 01:53:36;;;;;;;;;;;3.10;99.90;;;;;;5049122;28;19996;-72
2022/03/27 01:56:02;;;;;;;;;;;3.10;99.90;;;;;;5033826;28;20389;-72
2022/03/27 01:58:27;;;;;;;;;;;3.00;99.90;;;;;;5049136;28;19909;-72
2022/03/27 02:00:53;;;;;;;;;;;3.00;99.90;;;;;;5033912;28;19935;-72
2022/03/27 02:03:19;;;;;;;;;;;2.90;99.90;;;;;;5048872;28;19909;-72
2022/03/27 02:05:44;;;;;;;;;;;2.90;99.90;;;;;;5033792;28;19909;-72
2022/03/27 02:08:11;;;;;;;;;;;2.90;99.90;;;;;;5033762;28;19905;-72
2022/03/27 02:10:36;;;;;;;;;;;2.80;99.90;;;;;;5032519;28;19905;-72
2022/03/27 02:13:02;;;;;;;;;;;2.80;99.90;;;;;;5033586;28;19905;-72
2022/03/27 02:15:28;;;;;;;;;;;2.70;99.90;;;;;;5033715;28;19990;-72
2022/03/27 02:17:54;;;;;;;;;;;2.60;99.90;;;;;;5033307;28;19936;-72
2022/03/27 02:20:19;;;;;;;;;;;2.60;99.90;;;;;;5033859;28;20353;-72
2022/03/27 02:22:45;;;;;;;;;;;2.70;99.90;;;;;;5032264;28;19905;-73
2022/03/27 02:25:10;;;;;;;;;;;2.70;99.90;;;;;;5035213;28;20353;-73
2022/03/27 02:27:36;;;;;;;;;;;2.80;99.90;;;;;;5038110;28;20338;-73
2022/03/27 02:30:02;;;;;;;;;;;2.80;99.90;;;;;;5037819;28;19905;-73
2022/03/27 02:32:28;;;;;;;;;;;2.90;99.90;;;;;;5052507;28;20304;-72
2022/03/27 02:34:53;;;;;;;;;;;2.90;99.90;;;;;;5037677;28;19964;-72
2022/03/27 02:37:19;;;;;;;;;;;2.90;99.90;;;;;;5037589;28;20314;-72
2022/03/27 02:39:44;;;;;;;;;;;3.00;99.90;;;;;;5037275;28;20384;-73
2022/03/27 02:42:10;;;;;;;;;;;2.90;99.90;;;;;;5037401;28;20268;-72
2022/03/27 02:44:36;;;;;;;;;;;2.80;99.90;;;;;;5052624;28;19912;-72
2022/03/27 02:47:01;;;;;;;;;;;2.70;99.90;;;;;;5052272;28;20307;-72
2022/03/27 02:49:27;;;;;;;;;;;2.70;99.90;;;;;;5037043;28;19911;-72
2022/03/27 02:51:53;;;;;;;;;;;2.70;99.90;;;;;;5037420;28;20353;-73
2022/03/27 02:54:18;;;;;;;;;;;2.70;99.90;;;;;;5037343;28;19909;-73
2022/03/27 02:56:44;;;;;;;;;;;2.70;99.90;;;;;;5037025;28;19936;-73
2022/03/27 02:59:09;;;;;;;;;;;2.60;99.90;;;;;;5037174;28;19916;-73
2022/03/27 03:01:35;;;;;;;;;;;2.50;99.90;;;;;;5037800;28;19951;-72
2022/03/27 03:04:02;;;;;;;;;;;2.50;99.90;;;;;;5036707;28;19908;-72
2022/03/27 03:06:29;;;;;;;;;;;2.50;99.90;;;;;;5052154;28;19992;-72
2022/03/27 03:08:55;;;;;;;;;;;2.50;99.90;;;;;;5037097;28;19905;-72
2022/03/27 03:11:21;;;;;;;;;;;2.60;99.90;;;;;;5036688;28;20000;-72
2022/03/27 03:13:52;;;;;;;;;;;2.60;99.90;;;;;;5037145;28;19905;-72
2022/03/27 03:16:19;;;;;;;;;;;2.60;99.90;;;;;;5036658;28;19905;-72
2022/03/27 03:18:45;;;;;;;;;;;2.70;99.90;;;;;;5051654;28;19913;-72
2022/03/27 03:21:11;;;;;;;;;;;2.70;99.90;;;;;;5036875;28;19905;-72
2022/03/27 03:23:36;;;;;;;;;;;2.70;99.90;;;;;;5036478;28;20365;-73
2022/03/27 03:26:02;;;;;;;;;;;2.70;99.90;;;;;;5051804;28;20350;-72
2022/03/27 03:28:28;;;;;;;;;;;2.70;99.90;;;;;;5037004;28;19909;-72
2022/03/27 03:30:54;;;;;;;;;;;2.60;99.90;;;;;;5036410;28;19972;-72
2022/03/27 03:33:20;;;;;;;;;;;2.60;99.90;;;;;;5036111;28;20361;-72
2022/03/27 03:35:45;;;;;;;;;;;2.60;99.90;;;;;;5035731;28;19961;-72
2022/03/27 03:38:11;;;;;;;;;;;2.60;99.90;;;;;;5036441;28;19909;-72
2022/03/27 03:40:37;;;;;;;;;;;2.50;99.90;;;;;;5036443;28;19913;-72
2022/03/27 03:43:03;;;;;;;;;;;2.50;99.90;;;;;;5036046;28;20250;-72
2022/03/27 03:45:29;;;;;;;;;;;2.40;99.90;;;;;;5036372;28;19928;-72
2022/03/27 03:47:54;;;;;;;;;;;2.50;99.90;;;;;;5035838;28;19987;-72
2022/03/27 03:50:20;;;;;;;;;;;2.40;99.90;;;;;;5035998;28;20353;-72
2022/03/27 03:52:46;;;;;;;;;;;2.40;99.90;;;;;;5036255;28;19928;-72
2022/03/27 03:55:11;;;;;;;;;;;2.40;99.90;;;;;;5035998;28;19956;-72
2022/03/27 03:57:37;;;;;;;;;;;2.40;99.90;;;;;;5036141;28;19909;-72
2022/03/27 04:00:02;;;;;;;;;;;2.30;99.90;;;;;;5051281;28;19905;-73
2022/03/27 04:02:28;;;;;;;;;;;2.30;99.90;;;;;;5035826;28;19905;-72
2022/03/27 04:04:53;;;;;;;;;;;2.20;99.90;;;;;;5035795;28;20028;-72
2022/03/27 04:07:19;;;;;;;;;;;2.20;99.90;;;;;;5035989;28;19911;-73
2022/03/27 04:09:44;;;;;;;;;;;2.20;99.90;;;;;;5035682;28;19952;-72
2022/03/27 04:12:11;;;;;;;;;;;2.10;99.90;;;;;;5035521;28;19905;-73
2022/03/27 04:14:37;;;;;;;;;;;2.10;99.90;;;;;;5035842;28;19905;-73
2022/03/27 04:17:03;;;;;;;;;;;2.10;99.90;;;;;;5036085;28;19905;-72
2022/03/27 04:19:28;;;;;;;;;;;2.00;99.90;;;;;;5035275;28;19916;-72
2022/03/27 04:21:54;;;;;;;;;;;2.00;99.90;;;;;;5035417;28;20381;-72
2022/03/27 04:24:19;;;;;;;;;;;2.00;99.90;;;;;;5033997;28;19905;-72
2022/03/27 04:26:45;;;;;;;;;;;2.00;99.90;;;;;;5035339;28;19913;-73
2022/03/27 04:29:11;;;;;;;;;;;2.00;99.90;;;;;;5035256;28;19912;-73
2022/03/27 04:31:37;;;;;;;;;;;1.90;99.90;;;;;;5035526;28;19920;-73
2022/03/27 04:34:03;;;;;;;;;;;1.90;99.90;;;;;;5035279;28;19905;-72
2022/03/27 04:36:28;;;;;;;;;;;1.90;99.90;;;;;;5035128;28;19905;-73
2022/03/27 04:38:55;;;;;;;;;;;1.90;99.90;;;;;;5050511;28;19913;-72
2022/03/27 04:41:20;;;;;;;;;;;1.90;99.90;;;;;;5034983;28;19909;-73
2022/03/27 04:43:48;;;;;;;;;;;1.90;99.90;;;;;;5050323;28;19955;-73
2022/03/27 04:46:14;;;;;;;;;;;1.90;99.90;;;;;;5035069;28;19905;-73
2022/03/27 04:48:40;;;;;;;;;;;1.90;99.90;;;;;;5033754;28;19905;-72
2022/03/27 04:51:05;;;;;;;;;;;1.80;99.90;;;;;;5034861;28;19905;-73
2022/03/27 04:53:31;;;;;;;;;;;1.80;99.90;;;;;;5034814;28;20315;-72
2022/03/27 04:55:56;;;;;;;;;;;1.80;99.90;;;;;;5034775;28;19951;-73
2022/03/27 04:58:22;;;;;;;;;;;1.70;99.90;;;;;;5050030;28;19914;-73
2022/03/27 05:00:47;;;;;;;;;;;1.70;99.90;;;;;;5050384;28;19905;-73
2022/03/27 05:03:13;;;;;;;;;;;1.70;99.90;;;;;;5034333;28;19905;-72
2022/03/27 05:05:39;;;;;;;;;;;1.70;99.90;;;;;;5034545;28;19937;-73
2022/03/27 05:08:05;;;;;;;;;;;1.70;99.90;;;;;;5034825;28;20258;-73
2022/03/27 05:10:30;;;;;;;;;;;1.60;99.90;;;;;;5034527;28;19927;-73
2022/03/27 05:12:56;;;;;;;;;;;1.50;99.90;;;;;;5034371;28;20353;-73
2022/03/27 05:15:22;;;;;;;;;;;1.50;99.90;;;;;;5034657;28;19945;-73
2022/03/27 05:17:49;;;;;;;;;;;1.50;99.90;;;;;;5049361;28;20262;-73
2022/03/27 05:20:14;;;;;;;;;;;1.40;99.90;;;;;;5034628;28;19909;-73
2022/03/27 05:22:41;;;;;;;;;;;1.40;99.90;;;;;;5034204;28;19911;-73
2022/03/27 05:25:07;;;;;;;;;;;1.30;99.90;;;;;;5034242;28;19909;-73
2022/03/27 05:27:32;;;;;;;;;;;1.30;99.90;;;;;;5034496;28;19911;-72
2022/03/27 05:29:58;;;;;;;;;;;1.30;99.90;;;;;;5034753;28;20316;-73
2022/03/27 05:32:24;;;;;;;;;;;1.30;99.90;;;;;;5033860;28;20400;-72
2022/03/27 05:34:49;;;;;;;;;;;1.30;99.90;;;;;;5034414;28;20284;-73
2022/03/27 05:37:15;;;;;;;;;;;1.30;99.90;;;;;;5049333;28;19950;-73
2022/03/27 05:39:40;;;;;;;;;;;1.30;99.90;;;;;;5033984;28;19909;-72
2022/03/27 05:42:07;;;;;;;;;;;1.30;99.90;;;;;;5034208;28;19958;-73
2022/03/27 05:44:32;;;;;;;;;;;1.30;99.90;;;;;;5034313;28;19920;-72
2022/03/27 05:46:58;;;;;;;;;;;1.30;99.90;;;;;;5033998;28;19905;-73
2022/03/27 05:49:23;;;;;;;;;;;1.30;99.90;;;;;;5033738;28;19920;-72
2022/03/27 05:51:50;;;;;;;;;;;1.30;99.90;;;;;;5033992;28;19905;-73
2022/03/27 05:54:15;;;;;;;;;;;1.30;99.90;;;;;;5033868;28;19937;-73
2022/03/27 05:56:41;;;;;;;;;;;1.30;99.90;;;;;;5049200;28;19912;-73
2022/03/27 05:59:06;;;;;;;;;;;1.30;99.90;;;;;;5033791;28;19913;-73
2022/03/27 06:01:32;;;;;;;;;;;1.30;99.90;;;;;;5034156;28;19905;-73
2022/03/27 06:03:57;;;;;;;;;;;1.30;99.90;;;;;;5033676;28;20273;-73
2022/03/27 06:06:23;;;;;;;;;;;1.30;99.90;;;;;;5033796;28;19912;-73
2022/03/27 06:08:50;;;;;;;;;;;1.30;99.90;;;;;;5049121;28;19974;-73
2022/03/27 06:11:15;;;;;;;;;;;1.30;99.90;;;;;;5033780;28;19905;-73
2022/03/27 06:13:41;;;;;;;;;;;1.40;99.90;;;;;;5033673;28;20285;-73
2022/03/27 06:16:07;;;;;;;;;;;1.30;99.90;;;;;;5033683;28;19913;-73
2022/03/27 06:18:32;;;;;;;;;;;1.30;99.90;;;;;;5033546;28;19909;-73
2022/03/27 06:20:58;;;;;;;;;;;1.40;99.90;;;;;;5033983;28;19905;-73
2022/03/27 06:23:23;;;;;;;;;;;1.40;99.90;;;;;;5048954;28;19905;-73
2022/03/27 06:25:49;;;;;;;;;;;1.40;99.90;;;;;;5048812;28;19952;-73
2022/03/27 06:28:15;;;;;;;;;;;1.40;99.90;;;;;;5048996;28;20369;-73
2022/03/27 06:30:40;;;;;;;;;;;1.40;99.90;;;;;;5034151;28;20383;-73
2022/03/27 06:33:06;;;;;;;;;;;1.50;99.90;;;;;;5033581;28;19920;-73
2022/03/27 06:35:32;;;;;;;;;;;1.60;99.90;;;;;;5033865;28;19909;-73
2022/03/27 06:37:57;;;;;;;;;;;1.60;99.90;;;;;;5033463;28;19909;-73
2022/03/27 06:40:23;;;;;;;;;;;1.60;99.90;;;;;;5048817;28;20280;-73
2022/03/27 06:42:49;;;;;;;;;;;1.60;99.90;;;;;;5033586;28;19955;-74
2022/03/27 06:45:15;;;;;;;;;;;1.70;99.90;;;;;;5033415;28;19909;-73
2022/03/27 06:47:42;;;;;;;;;;;1.70;99.90;;;;;;5033166;28;19944;-73
2022/03/27 06:50:08;;;;;;;;;;;1.70;99.90;;;;;;5033298;28;20319;-73
2022/03/27 06:52:34;;;;;;;;;;;1.90;99.90;;;;;;5033229;28;20000;-73
2022/03/27 06:55:00;;;;;;;;;;;1.90;99.90;;;;;;5033532;28;19905;-73
2022/03/27 06:57:25;;;;;;;;;;;2.00;99.90;;;;;;5033305;28;20384;-73
2022/03/27 07:05:22;;;;;;;;;;;2.30;99.90;;;;;;5033867;28;20292;-73
2022/03/27 07:07:48;;;;;;;;;;;2.30;99.90;;;;;;5033141;28;19912;-72
2022/03/27 07:10:13;;;;;;;;;;;2.40;99.90;;;;;;5033181;28;19905;-73
2022/03/27 07:12:39;;;;;;;;;;;2.50;99.90;;;;;;5036582;28;19912;-73
2022/03/27 07:15:05;;;;;;;;;;;2.60;99.90;;;;;;5036706;28;19909;-72
2022/03/27 07:17:31;;;;;;;;;;;2.70;99.90;;;;;;5036542;28;19911;-72
2022/03/27 07:19:56;;;;;;;;;;;2.80;99.90;;;;;;5036307;28;19909;-72
2022/03/27 07:22:22;;;;;;;;;;;2.90;99.90;;;;;;5036507;28;20318;-72
2022/03/27 07:24:48;;;;;;;;;;;3.10;99.90;;;;;;5036548;28;19905;-72
2022/03/27 07:27:14;;;;;;;;;;;3.20;99.90;;;;;;5036383;28;19912;-72
2022/03/27 07:29:40;;;;;;;;;;;3.30;99.90;;;;;;5036459;28;20280;-72
2022/03/27 07:32:06;;;;;;;;;;;3.40;99.90;;;;;;5036345;28;19905;-72
2022/03/27 07:34:35;;;;;;;;;;;3.50;99.90;;;;;;5036010;28;19905;-72
2022/03/27 07:37:01;;;;;;;;;;;3.60;99.90;;;;;;5036317;28;20380;-72
2022/03/27 07:39:26;;;;;;;;;;;3.80;99.90;;;;;;5036219;28;20253;-72
2022/03/27 07:41:52;;;;;;;;;;;3.90;99.90;;;;;;5036127;28;19912;-72
2022/03/27 07:44:18;;;;;;;;;;;4.10;99.90;;;;;;5036102;28;19905;-72
2022/03/27 07:46:44;;;;;;;;;;;4.20;99.90;;;;;;5035988;28;20377;-72
2022/03/27 07:49:09;;;;;;;;;;;4.40;99.90;;;;;;5036006;28;19905;-71
2022/03/27 07:51:35;;;;;;;;;;;4.50;99.90;;;;;;5036031;28;19905;-72
2022/03/27 07:54:01;;;;;;;;;;;4.60;99.90;;;;;;5036521;28;20357;-71
2022/03/27 07:56:27;;;;;;;;;;;4.70;99.90;;;;;;5035960;28;19912;-71
2022/03/27 07:58:52;;;;;;;;;;;4.90;99.90;;;;;;5035884;28;19909;-71
2022/03/27 08:01:18;;;;;;;;;;;5.00;99.90;;;;;;5051216;28;20369;-71
2022/03/27 08:03:44;;;;;;;;;;;5.10;99.90;;;;;;5035677;28;19905;-71
2022/03/27 08:06:09;;;;;;;;;;;5.30;99.90;;;;;;5051062;28;20289;-71
2022/03/27 08:08:35;;;;;;;;;;;5.40;99.90;;;;;;5035727;28;19909;-71
2022/03/27 08:11:00;;;;;;;;;;;5.50;99.90;;;;;;5035909;28;19912;-71
2022/03/27 08:13:26;;;;;;;;;;;5.70;99.90;;;;;;5035467;28;19905;-71
2022/03/27 08:15:52;;;;;;;;;;;5.80;99.90;;;;;;5035888;28;19905;-71
2022/03/27 08:18:18;;;;;;;;;;;6.00;99.90;;;;;;5035460;28;19909;-71
2022/03/27 08:20:43;;;;;;;;;;;6.10;99.90;;;;;;5035831;28;19912;-71
2022/03/27 08:23:09;;;;;;;;;;;6.30;99.90;;;;;;5035330;28;19904;-71
2022/03/27 08:28:20;;;;;;;;;;;6.50;99.90;;;;;;5035958;28;19912;-71
2022/03/27 08:30:46;;;;;;;;;;;6.70;99.90;;;;;;5035816;28;19928;-71
2022/03/27 08:33:12;;;;;;;;;;;6.80;99.90;;;;;;5050329;28;19992;-71
2022/03/27 08:35:42;;;;;;;;;;;7.00;99.90;;;;;;5035678;28;20010;-72
2022/03/27 08:38:11;;;;;;;;;;;7.10;99.90;;;;;;5035069;28;19913;-72
2022/03/27 08:40:38;;;;;;;;;;;7.20;99.90;;;;;;5035373;28;19932;-72
2022/03/27 08:43:12;;;;;;;;;;;7.40;99.90;;;;;;5034952;28;19912;-72
2022/03/27 08:45:37;;;;;;;;;;;7.60;99.90;;;;;;5035296;28;20376;-72
2022/03/27 08:48:04;;;;;;;;;;;7.80;99.90;;;;;;5035092;28;19905;-72
2022/03/27 08:50:32;;;;;;;;;;;7.90;99.90;;;;;;5034939;28;19905;-72
2022/03/27 08:52:57;;;;;;;;;;;8.10;98.70;;;;;;5034864;28;20289;-72
2022/03/27 08:55:29;;;;;;;;;;;8.20;97.00;;;;;;5034795;28;19905;-72
2022/03/27 08:57:56;;;;;;;;;;;8.40;95.90;;;;;;5035011;28;19958;-72
2022/03/27 09:00:22;;;;;;;;;;;8.50;95.10;;;;;;5034771;28;20000;-72
2022/03/27 09:02:48;;;;;;;;;;;8.70;93.90;;;;;;5034578;28;20284;-73
2022/03/27 09:05:14;;;;;;;;;;;8.90;93.50;;;;;;5034334;28;19987;-72
2022/03/27 09:07:40;;;;;;;;;;;9.10;92.90;;;;;;5034562;28;20384;-73
2022/03/27 09:10:08;;;;;;;;;;;9.20;92.30;;;;;;5034562;28;19944;-72
2022/03/27 09:12:34;;;;;;;;;;;9.40;91.20;;;;;;5034785;28;19905;-72
2022/03/27 09:14:59;;;;;;;;;;;9.60;90.10;;;;;;5034462;28;19912;-74
2022/03/27 09:17:25;;;;;;;;;;;9.80;90.20;;;;;;5049852;28;19913;-74
2022/03/27 09:19:51;;;;;;;;;;;9.90;89.70;;;;;;5034246;28;19988;-73
2022/03/27 09:22:21;;;;;;;;;;;10.00;86.30;;;;;;5034588;28;19913;-73
2022/03/27 09:24:48;;;;;;;;;;;10.10;83.60;;;;;;5034328;28;19909;-73
2022/03/27 09:27:14;;;;;;;;;;;10.30;84.40;;;;;;5049506;28;19923;-74
2022/03/27 09:29:59;;;;;;;;;;;10.40;83.20;;;;;;5034335;28;19905;-73
2022/03/27 09:32:29;;;;;;;;;;;10.60;80.90;;;;;;5034318;28;19909;-73
2022/03/27 09:35:05;;;;;;;;;;;10.80;75.30;;;;;;5033634;28;19905;-73
2022/03/27 09:37:32;;;;;;;;;;;10.90;75.60;;;;;;5034126;28;19928;-73
2022/03/27 09:39:58;;;;;;;;;;;11.10;76.40;;;;;;5034054;28;19959;-73
2022/03/27 09:42:24;;;;;;;;;;;11.20;74.20;;;;;;5034159;28;20353;-74
2022/03/27 09:45:08;;;;;;;;;;;11.40;74.80;;;;;;5034106;28;19954;-74
2022/03/27 09:47:33;;;;;;;;;;;11.50;74.90;;;;;;5034196;28;19913;-74
2022/03/27 09:49:59;;;;;;;;;;;11.70;74.30;;;;;;5033780;28;19905;-73
2022/03/27 09:52:25;;;;;;;;;;;11.80;69.70;;;;;;5034185;28;19915;-74
2022/03/27 09:54:58;;;;;;;;;;;11.90;69.50;;;;;;5049284;28;19940;-74
2022/03/27 09:57:25;;;;;;;;;;;12.00;67.70;;;;;;5049284;28;19905;-74
2022/03/27 09:59:51;;;;;;;;;;;12.10;67.30;;;;;;5033777;28;19909;-74
2022/03/27 10:02:17;;;;;;;;;;;12.20;66.80;;;;;;5034134;28;20380;-74
2022/03/27 10:04:52;;;;;;;;;;;12.30;65.40;;;;;;5033679;28;19905;-74
2022/03/27 10:07:18;;;;;;;;;;;12.30;64.70;;;;;;5034066;28;19905;-74
2022/03/27 10:09:44;;;;;;;;;;;12.50;64.30;;;;;;5034347;28;19951;-74
2022/03/27 10:12:09;;;;;;;;;;;12.60;62.10;;;;;;5033924;28;19905;-74
2022/03/27 10:14:35;;;;;;;;;;;12.80;62.50;;;;;;5034090;28;19916;-74
2022/03/27 10:17:01;;;;;;;;;;;12.90;61.20;;;;;;5033970;28;20361;-74
2022/03/27 10:19:31;;;;;;;;;;;13.00;61.30;;;;;;5033564;28;19952;-74
2022/03/27 10:21:58;;;;;;;;;;;13.20;61.20;;;;;;5049307;28;20283;-74
2022/03/27 10:24:27;;;;;;;;;;;13.30;60.50;;;;;;5034184;28;19909;-74
2022/03/27 10:26:55;;;;;;;;;;;13.30;58.50;;;;;;5033689;28;19913;-74
2022/03/27 10:29:21;;;;;;;;;;;13.40;59.70;;;;;;5033600;28;19940;-73
2022/03/27 10:31:47;;;;;;;;;;;13.50;58.30;;;;;;5033593;28;20375;-74
2022/03/27 10:34:14;;;;;;;;;;;13.60;57.80;;;;;;5033431;28;20004;-73
2022/03/27 10:36:58;;;;;;;;;;;13.70;57.60;;;;;;5033854;28;19951;-74
2022/03/27 10:39:25;;;;;;;;;;;13.80;59.00;;;;;;5033595;28;19909;-73
2022/03/27 10:41:57;;;;;;;;;;;13.90;58.80;;;;;;5033928;28;19992;-74
2022/03/27 10:44:41;;;;;;;;;;;14.10;57.60;;;;;;5033597;28;20357;-74
2022/03/27 10:47:11;;;;;;;;;;;14.30;55.80;;;;;;5051799;28;19905;-73
2022/03/27 10:49:36;;;;;;;;;;;14.50;57.10;;;;;;5052746;28;19943;-73
2022/03/27 10:52:06;;;;;;;;;;;14.60;52.90;;;;;;5052660;28;20366;-74
2022/03/27 10:54:31;;;;;;;;;;;14.60;53.40;;;;;;5037262;28;20439;-73
2022/03/27 10:56:58;;;;;;;;;;;14.80;52.80;;;;;;5037435;28;19972;-73
2022/03/27 10:59:25;;;;;;;;;;;14.90;54.40;;;;;;5036995;28;20324;-74
2022/03/27 11:01:51;;;;;;;;;;;15.00;53.50;;;;;;5037038;28;19905;-74
2022/03/27 11:04:21;;;;;;;;;;;15.10;51.60;;;;;;5036744;28;19905;-74
2022/03/27 11:06:48;;;;;;;;;;;15.20;50.50;;;;;;5036991;28;19948;-73
2022/03/27 11:09:30;;;;;;;;;;;15.20;53.10;;;;;;5036900;28;19905;-73
2022/03/27 11:11:57;;;;;;;;;;;15.30;51.40;;;;;;5036864;28;20428;-73
2022/03/27 11:14:23;;;;;;;;;;;15.50;51.50;;;;;;5036797;28;19905;-73
2022/03/27 11:17:07;;;;;;;;;;;15.60;50.40;;;;;;5052153;28;19912;-73
2022/03/27 11:19:39;;;;;;;;;;;15.70;50.70;;;;;;5051969;28;19909;-73
2022/03/27 11:22:04;;;;;;;;;;;15.80;49.70;;;;;;5037399;28;19951;-73
2022/03/27 11:24:30;;;;;;;;;;;15.90;49.10;;;;;;5036546;28;19905;-73
2022/03/27 11:26:57;;;;;;;;;;;16.10;47.80;;;;;;5036526;28;19920;-73
2022/03/27 11:29:23;;;;;;;;;;;16.10;47.40;;;;;;5036559;28;19905;-73
2022/03/27 11:32:08;;;;;;;;;;;16.20;45.50;;;;;;5036684;28;19912;-73
2022/03/27 11:34:34;;;;;;;;;;;16.30;44.60;;;;;;5036392;28;19912;-73
2022/03/27 11:37:27;;;;;;;;;;;16.40;45.30;;;;;;5036414;28;20284;-74
2022/03/27 11:39:54;;;;;;;;;;;16.60;45.70;;;;;;5036862;28;19909;-73
2022/03/27 11:42:22;;;;;;;;;;;16.80;45.20;;;;;;5051463;28;20391;-73
2022/03/27 11:45:06;;;;;;;;;;;16.90;45.70;;;;;;5051593;28;19905;-73
2022/03/27 11:47:43;;;;;;;;;;;17.10;44.90;;;;;;5036230;28;19905;-73
2022/03/27 11:50:17;;;;;;;;;;;17.30;44.30;;;;;;5036025;28;20388;-72
2022/03/27 11:52:44;;;;;;;;;;;17.40;42.30;;;;;;5051363;28;19911;-73
2022/03/27 11:55:11;;;;;;;;;;;17.40;44.20;;;;;;5036381;28;19994;-73
2022/03/27 11:57:55;;;;;;;;;;;17.50;42.70;;;;;;5035844;28;19991;-73
2022/03/27 12:00:31;;;;;;;;;;;17.70;43.40;;;;;;5036254;28;20015;-73
2022/03/27 12:02:57;;;;;;;;;;;17.70;42.70;;;;;;5036236;28;20254;-72
2022/03/27 12:05:31;;;;;;;;;;;17.80;40.10;;;;;;5035776;28;19905;-72
2022/03/27 12:07:56;;;;;;;;;;;17.90;40.40;;;;;;5036077;28;20296;-73
2022/03/27 12:10:23;;;;;;;;;;;17.90;39.10;;;;;;5036031;28;19932;-73
2022/03/27 12:12:55;;;;;;;;;;;18.00;41.50;;;;;;5035514;28;19905;-73
2022/03/27 12:15:20;;;;;;;;;;;18.00;37.80;;;;;;5035626;28;19912;-73
2022/03/27 12:17:46;;;;;;;;;;;17.90;34.50;;;;;;5035531;28;19905;-73
2022/03/27 12:20:12;;;;;;;;;;;17.90;36.70;;;;;;5035291;28;19988;-72
2022/03/27 12:22:39;;;;;;;;;;;17.90;36.90;;;;;;5035607;28;19915;-73
2022/03/27 12:25:17;;;;;;;;;;;18.00;40.30;;;;;;5035694;28;19919;-73
2022/03/27 12:30:36;;;;;;;;;;;18.30;37.50;;;;;;5035975;28;19912;-73
2022/03/27 12:33:03;;;;;;;;;;;18.50;36.20;;;;;;5035621;28;19905;-73
2022/03/27 12:35:30;;;;;;;;;;;18.60;36.20;;;;;;5034947;28;19959;-73
2022/03/27 12:37:56;;;;;;;;;;;18.70;36.40;;;;;;5035681;28;19909;-73
2022/03/27 12:40:21;;;;;;;;;;;18.90;35.90;;;;;;5035142;28;20331;-73
2022/03/27 12:42:48;;;;;;;;;;;19.00;36.10;;;;;;5035113;28;19913;-73
2022/03/27 12:45:22;;;;;;;;;;;19.10;34.50;;;;;;5035061;28;19909;-73
2022/03/27 12:47:49;;;;;;;;;;;19.20;31.50;;;;;;5035315;28;19992;-72
2022/03/27 12:50:29;;;;;;;;;;;19.10;32.80;;;;;;5034840;28;19905;-73
2022/03/27 12:52:56;;;;;;;;;;;19.10;33.00;;;;;;5034841;28;19913;-72
2022/03/27 12:55:27;;;;;;;;;;;19.10;33.60;;;;;;5034934;28;19912;-72
2022/03/27 12:57:54;;;;;;;;;;;19.00;33.80;;;;;;5034737;28;19912;-72
2022/03/27 13:00:23;;;;;;;;;;;19.00;36.70;;;;;;5035078;28;19954;-73
2022/03/27 13:02:49;;;;;;;;;;;19.20;34.70;;;;;;5034640;28;19928;-72
2022/03/27 13:05:16;;;;;;;;;;;19.20;35.30;;;;;;5034460;28;20357;-72
2022/03/27 13:07:51;;;;;;;;;;;19.20;33.80;;;;;;5034788;28;19906;-72
2022/03/27 13:10:17;;;;;;;;;;;19.20;34.70;;;;;;5034453;28;19905;-73
2022/03/27 13:12:42;;;;;;;;;;;19.30;34.00;;;;;;5034640;28;19912;-72
2022/03/27 13:15:08;;;;;;;;;;;19.30;36.80;;;;;;5034544;28;19905;-73
2022/03/27 13:17:33;;;;;;;;;;;19.50;38.10;;;;;;5034509;28;19905;-72
2022/03/27 13:19:59;;;;;;;;;;;19.70;37.60;;;;;;5034181;28;19909;-72
2022/03/27 13:22:24;;;;;;;;;;;19.80;33.20;;;;;;5034554;28;19939;-73
2022/03/27 13:24:50;;;;;;;;;;;19.70;33.80;;;;;;5034667;28;19909;-73
2022/03/27 13:27:16;;;;;;;;;;;19.70;33.60;;;;;;5034199;28;19917;-73
2022/03/27 13:29:42;;;;;;;;;;;19.70;35.50;;;;;;5034907;28;20270;-72
2022/03/27 13:32:08;;;;;;;;;;;19.80;34.90;;;;;;5034320;28;20372;-73
2022/03/27 13:34:34;;;;;;;;;;;19.90;35.10;;;;;;5033984;28;19912;-72
2022/03/27 13:37:00;;;;;;;;;;;20.00;35.90;;;;;;5034151;28;19905;-72
2022/03/27 13:39:26;;;;;;;;;;;20.10;32.20;;;;;;5034078;28;20043;-73
2022/03/27 13:44:37;;;;;;;;;;;20.30;35.50;;;;;;5034383;28;19927;-73
2022/03/27 13:47:02;;;;;;;;;;;20.40;33.20;;;;;;5034564;28;20269;-72
2022/03/27 13:49:28;;;;;;;;;;;20.40;34.20;;;;;;5034136;28;19908;-72
2022/03/27 13:51:54;;;;;;;;;;;20.50;35.90;;;;;;5034248;28;19913;-73
2022/03/27 13:54:20;;;;;;;;;;;20.70;36.80;;;;;;5033918;28;19905;-72
2022/03/27 13:56:46;;;;;;;;;;;20.80;31.20;;;;;;5033939;28;19960;-73
2022/03/27 13:59:13;;;;;;;;;;;20.70;34.80;;;;;;5033810;28;20361;-73
2022/03/27 14:01:40;;;;;;;;;;;20.70;32.40;;;;;;5034119;28;19964;-72
2022/03/27 14:04:15;;;;;;;;;;;20.60;30.90;;;;;;5033778;28;19909;-72
2022/03/27 14:06:42;;;;;;;;;;;20.40;30.90;;;;;;5033715;28;20377;-72
2022/03/27 14:09:07;;;;;;;;;;;20.30;31.30;;;;;;5049081;28;19916;-72
2022/03/27 14:11:33;;;;;;;;;;;20.30;30.90;;;;;;5033974;28;20364;-72
2022/03/27 14:13:59;;;;;;;;;;;20.30;29.60;;;;;;5033664;28;19905;-72
2022/03/27 14:16:24;;;;;;;;;;;20.30;30.80;;;;;;5034011;28;19909;-72
2022/03/27 14:18:51;;;;;;;;;;;20.40;31.30;;;;;;5033909;28;19958;-72
2022/03/27 14:21:16;;;;;;;;;;;20.40;31.50;;;;;;5036846;28;19911;-72
2022/03/27 14:23:42;;;;;;;;;;;20.20;32.90;;;;;;5037949;28;19992;-73
2022/03/27 14:26:08;;;;;;;;;;;20.30;32.30;;;;;;5037563;28;19913;-72
2022/03/27 14:28:34;;;;;;;;;;;20.30;32.20;;;;;;5037620;28;19959;-72
2022/03/27 14:31:00;;;;;;;;;;;20.50;32.40;;;;;;5037511;28;19909;-72
2022/03/27 14:33:25;;;;;;;;;;;20.50;30.80;;;;;;5037411;28;20002;-73
2022/03/27 14:35:52;;;;;;;;;;;20.50;30.50;;;;;;5037298;28;20381;-72
2022/03/27 14:38:18;;;;;;;;;;;20.60;31.30;;;;;;5037418;28;19916;-70
2022/03/27 14:40:45;;;;;;;;;;;20.90;31.60;;;;;;5037698;28;20297;-70